Sea Cloud II — 9HUE6 — position and weather

sailwx.info

Track history (hours):
 
Tides and Currents Weather Stations Pressure Air Temp Water Temp Dewpoint Dewpoint Depression Visibility Wind Speed Wind Dir Waves Ship Positions

Sea Cloud II

Ship's website: http://www.seacloud.com/en/the-ships/sea-cloud-ii.html

Last reported at 2019-Nov-16 20:07 UTC. Time now 2019-Nov-17 18:33 UTC.
Position N 28°15' W 016°17'.

Length 117 m; draft 6 m.

Type: Passenger vessel. MMSI: 248953000.

Date/timePositionNaut miles runAvg speedWind from/ knotsBaromVisibWave heightAir tempDewpointWater temp
2019-Nov-16 20:07N 28°15' W 016°17'5 7.7
2019-Nov-16 19:29N 28°20' W 016°15'4 7.4
2019-Nov-16 19:00N 28°23' W 016°13'3 6.9
2019-Nov-16 18:30N 28°26' W 016°12'3 2.7
2019-Nov-16 17:28N 28°28' W 016°15'0 0.0
2019-Nov-16 16:55N 28°28' W 016°15'0 0.0
2019-Nov-16 15:55N 28°28' W 016°15'0 0.0
2019-Nov-16 15:30N 28°28' W 016°15'48 2.8
2019-Nov-15 22:29N 28°08' W 015°25'0 0.0
2019-Nov-15 19:56N 28°08' W 015°25'0 0.0
2019-Nov-15 18:59N 28°08' W 015°25'0 0.0
2019-Nov-15 17:53N 28°08' W 015°25'0 0.0
2019-Nov-15 15:26N 28°08' W 015°25'0 0.0
2019-Nov-15 13:26N 28°08' W 015°25'0 0.0
2019-Nov-15 11:59N 28°08' W 015°25'0 0.0
2019-Nov-15 09:29N 28°08' W 015°25'0 0.0
2019-Nov-15 08:29N 28°08' W 015°25'0 0.0
2019-Nov-15 06:59N 28°08' W 015°25'0 0.0
2019-Nov-15 04:29N 28°08' W 015°25'0 0.0
2019-Nov-15 03:29N 28°08' W 015°25'0 0.0
2019-Nov-14 23:59N 28°08' W 015°25'0 0.0
2019-Nov-14 22:23N 28°08' W 015°25'0 0.0
2019-Nov-14 19:26N 28°08' W 015°25'0 0.0
2019-Nov-14 18:59N 28°08' W 015°25'0 0.0
2019-Nov-14 18:26N 28°08' W 015°25'0 0.0
2019-Nov-14 17:56N 28°08' W 015°25'0 0.0
2019-Nov-14 17:29N 28°08' W 015°25'0 0.0
2019-Nov-14 10:29N 28°08' W 015°25'0 0.0
2019-Nov-14 06:26N 28°08' W 015°25'0 0.0
2019-Nov-14 03:56N 28°08' W 015°25'0 0.0
2019-Nov-14 01:59N 28°08' W 015°25'0 0.0
2019-Nov-13 23:29N 28°08' W 015°25'0 0.0
2019-Nov-13 21:29N 28°08' W 015°25'0 0.0
2019-Nov-13 20:29N 28°08' W 015°25'0 0.0
2019-Nov-13 18:23N 28°08' W 015°25'0 0.0
2019-Nov-13 17:50N 28°08' W 015°25'0 0.0
2019-Nov-13 15:56N 28°08' W 015°25'0 0.0
2019-Nov-13 14:26N 28°08' W 015°25'0 0.0
2019-Nov-13 13:59N 28°08' W 015°25'0 0.0
2019-Nov-13 12:26N 28°08' W 015°25'0 0.0
2019-Nov-13 11:29N 28°08' W 015°25'0 0.0
2019-Nov-13 09:59N 28°08' W 015°25'0 0.0
2019-Nov-13 09:29N 28°08' W 015°25'0 0.0
2019-Nov-13 08:29N 28°08' W 015°25'0 0.0
2019-Nov-13 05:59N 28°08' W 015°25'0 0.0
2019-Nov-13 02:59N 28°08' W 015°25'0 0.0
2019-Nov-13 02:23N 28°08' W 015°25'0 0.0
2019-Nov-13 01:59N 28°08' W 015°25'0 0.0
2019-Nov-12 23:59N 28°08' W 015°25'0 0.0
2019-Nov-12 23:29N 28°08' W 015°25'0 0.0
2019-Nov-12 21:59N 28°08' W 015°25'0 0.0
2019-Nov-12 17:59N 28°08' W 015°25'0 0.0
2019-Nov-12 15:29N 28°08' W 015°25'0 0.0
2019-Nov-12 14:59N 28°08' W 015°25'0 0.0
2019-Nov-12 13:56N 28°08' W 015°25'0 0.0
2019-Nov-12 13:29N 28°08' W 015°25'0 0.0
2019-Nov-12 12:59N 28°08' W 015°25'0 0.0
2019-Nov-12 11:53N 28°08' W 015°25'0 0.0
2019-Nov-12 11:29N 28°08' W 015°25'0 0.0
2019-Nov-11 13:00N 28°08' W 015°25'0 0.0
2019-Nov-11 11:54N 28°08' W 015°25'0 0.0
2019-Nov-11 10:27N 28°08' W 015°25'0 0.0
2019-Nov-11 08:57N 28°08' W 015°25'4 1.3
2019-Nov-11 06:00N 28°11' W 015°23'3 5.9
2019-Nov-11 05:30N 28°13' W 015°26'11 5.3
2019-Nov-11 03:30N 28°15' W 015°38'7 7.4
2019-Nov-11 02:30N 28°16' W 015°46'4 8.9
2019-Nov-11 02:00N 28°17' W 015°51'7 6.6
2019-Nov-11 00:59N 28°20' W 015°58'3 6.0
2019-Nov-11 00:26N 28°21' W 016°01'6 6.0
2019-Nov-10 23:30N 28°24' W 016°07'6 6.1
2019-Nov-10 22:30N 28°28' W 016°12'2 1.5
2019-Nov-10 20:58N 28°29' W 016°15'0 0.0
2019-Nov-10 18:28N 28°29' W 016°15'0 0.0
2019-Nov-10 15:58N 28°29' W 016°15'11 1.6
2019-Nov-10 09:00N 28°25' W 016°02'25 8.2
2019-Nov-10 05:56N 28°04' W 015°45'36 5.6
2019-Nov-09 23:30N 27°46' W 015°11'511.0
2019-Nov-09 23:00N 27°47' W 015°05'6710.1
2019-Nov-09 16:22N 28°09' W 013°53'22 0.9
2019-Nov-08 17:29N 28°30' W 013°47'31 4.7
2019-Nov-08 11:00N 28°58' W 013°32'0 0.0
2019-Nov-08 09:30N 28°58' W 013°32'0 0.0
2019-Nov-08 08:42N 28°58' W 013°32'0 0.0
2019-Nov-08 08:30N 28°58' W 013°32'0 0.1
2019-Nov-08 06:59N 28°58' W 013°32'  
Track history (hours):
 
Tides and Currents Weather Stations Pressure Air Temp Water Temp Dewpoint Dewpoint Depression Visibility Wind Speed Wind Dir Waves Ship Positions

Sea Cloud II

Ship's website: http://www.seacloud.com/en/the-ships/sea-cloud-ii.html

Last reported at 2019-Nov-16 20:07 UTC. Time now 2019-Nov-17 18:33 UTC.
Position N 28°15' W 016°17'.

Length 117 m; draft 6 m.

Type: Passenger vessel. MMSI: 248953000.

Date/timePositionNaut miles runAvg speedWind from/ knotsBaromVisibWave heightAir tempDewpointWater temp
2019-Nov-16 20:07N 28°15' W 016°17'5 7.7
2019-Nov-16 19:29N 28°20' W 016°15'4 7.4
2019-Nov-16 19:00N 28°23' W 016°13'3 6.9
2019-Nov-16 18:30N 28°26' W 016°12'3 2.7
2019-Nov-16 17:28N 28°28' W 016°15'0 0.0
2019-Nov-16 16:55N 28°28' W 016°15'0 0.0
2019-Nov-16 15:55N 28°28' W 016°15'0 0.0
2019-Nov-16 15:30N 28°28' W 016°15'48 2.8
2019-Nov-15 22:29N 28°08' W 015°25'0 0.0
2019-Nov-15 19:56N 28°08' W 015°25'0 0.0
2019-Nov-15 18:59N 28°08' W 015°25'0 0.0
2019-Nov-15 17:53N 28°08' W 015°25'0 0.0
2019-Nov-15 15:26N 28°08' W 015°25'0 0.0
2019-Nov-15 13:26N 28°08' W 015°25'0 0.0
2019-Nov-15 11:59N 28°08' W 015°25'0 0.0
2019-Nov-15 09:29N 28°08' W 015°25'0 0.0
2019-Nov-15 08:29N 28°08' W 015°25'0 0.0
2019-Nov-15 06:59N 28°08' W 015°25'0 0.0
2019-Nov-15 04:29N 28°08' W 015°25'0 0.0
2019-Nov-15 03:29N 28°08' W 015°25'0 0.0
2019-Nov-14 23:59N 28°08' W 015°25'0 0.0
2019-Nov-14 22:23N 28°08' W 015°25'0 0.0
2019-Nov-14 19:26N 28°08' W 015°25'0 0.0
2019-Nov-14 18:59N 28°08' W 015°25'0 0.0
2019-Nov-14 18:26N 28°08' W 015°25'0 0.0
2019-Nov-14 17:56N 28°08' W 015°25'0 0.0
2019-Nov-14 17:29N 28°08' W 015°25'0 0.0
2019-Nov-14 10:29N 28°08' W 015°25'0 0.0
2019-Nov-14 06:26N 28°08' W 015°25'0 0.0
2019-Nov-14 03:56N 28°08' W 015°25'0 0.0
2019-Nov-14 01:59N 28°08' W 015°25'0 0.0
2019-Nov-13 23:29N 28°08' W 015°25'0 0.0
2019-Nov-13 21:29N 28°08' W 015°25'0 0.0
2019-Nov-13 20:29N 28°08' W 015°25'0 0.0
2019-Nov-13 18:23N 28°08' W 015°25'0 0.0
2019-Nov-13 17:50N 28°08' W 015°25'0 0.0
2019-Nov-13 15:56N 28°08' W 015°25'0 0.0
2019-Nov-13 14:26N 28°08' W 015°25'0 0.0
2019-Nov-13 13:59N 28°08' W 015°25'0 0.0
2019-Nov-13 12:26N 28°08' W 015°25'0 0.0
2019-Nov-13 11:29N 28°08' W 015°25'0 0.0
2019-Nov-13 09:59N 28°08' W 015°25'0 0.0
2019-Nov-13 09:29N 28°08' W 015°25'0 0.0
2019-Nov-13 08:29N 28°08' W 015°25'0 0.0
2019-Nov-13 05:59N 28°08' W 015°25'0 0.0
2019-Nov-13 02:59N 28°08' W 015°25'0 0.0
2019-Nov-13 02:23N 28°08' W 015°25'0 0.0
2019-Nov-13 01:59N 28°08' W 015°25'0 0.0
2019-Nov-12 23:59N 28°08' W 015°25'0 0.0
2019-Nov-12 23:29N 28°08' W 015°25'0 0.0
2019-Nov-12 21:59N 28°08' W 015°25'0 0.0
2019-Nov-12 17:59N 28°08' W 015°25'0 0.0
2019-Nov-12 15:29N 28°08' W 015°25'0 0.0
2019-Nov-12 14:59N 28°08' W 015°25'0 0.0
2019-Nov-12 13:56N 28°08' W 015°25'0 0.0
2019-Nov-12 13:29N 28°08' W 015°25'0 0.0
2019-Nov-12 12:59N 28°08' W 015°25'0 0.0
2019-Nov-12 11:53N 28°08' W 015°25'0 0.0
2019-Nov-12 11:29N 28°08' W 015°25'0 0.0
2019-Nov-11 13:00N 28°08' W 015°25'0 0.0
2019-Nov-11 11:54N 28°08' W 015°25'0 0.0
2019-Nov-11 10:27N 28°08' W 015°25'0 0.0
2019-Nov-11 08:57N 28°08' W 015°25'4 1.3
2019-Nov-11 06:00N 28°11' W 015°23'3 5.9
2019-Nov-11 05:30N 28°13' W 015°26'11 5.3
2019-Nov-11 03:30N 28°15' W 015°38'7 7.4
2019-Nov-11 02:30N 28°16' W 015°46'4 8.9
2019-Nov-11 02:00N 28°17' W 015°51'7 6.6
2019-Nov-11 00:59N 28°20' W 015°58'3 6.0
2019-Nov-11 00:26N 28°21' W 016°01'6 6.0
2019-Nov-10 23:30N 28°24' W 016°07'6 6.1
2019-Nov-10 22:30N 28°28' W 016°12'2 1.5
2019-Nov-10 20:58N 28°29' W 016°15'0 0.0
2019-Nov-10 18:28N 28°29' W 016°15'0 0.0
2019-Nov-10 15:58N 28°29' W 016°15'11 1.6
2019-Nov-10 09:00N 28°25' W 016°02'25 8.2
2019-Nov-10 05:56N 28°04' W 015°45'36 5.6
2019-Nov-09 23:30N 27°46' W 015°11'511.0
2019-Nov-09 23:00N 27°47' W 015°05'6710.1
2019-Nov-09 16:22N 28°09' W 013°53'22 0.9
2019-Nov-08 17:29N 28°30' W 013°47'31 4.7
2019-Nov-08 11:00N 28°58' W 013°32'0 0.0
2019-Nov-08 09:30N 28°58' W 013°32'0 0.0
2019-Nov-08 08:42N 28°58' W 013°32'0 0.0
2019-Nov-08 08:30N 28°58' W 013°32'0 0.1
2019-Nov-08 06:59N 28°58' W 013°32'  

Dump ship's entire track history